Time;durP1;ratioP1;P1;durP2;ratioP2;P2;SDS_P1;SDS_P2;PMS_P1;PMS_P2;Temp;Humidity;BMP_temperature;BMP_pressure;BME280_temperature;BME280_humidity;BME280_pressure;Samples;Min_cycle;Max_cycle;Signal;HPM_P1;HPM_P2
2021/05/28 00:02:14;;;;;;;7.30;5.75;;;;;;;17.14;95.36;96709.09;4910059;29;20082;-60
2021/05/28 00:04:41;;;;;;;9.15;5.45;;;;;;;16.55;95.20;96597.59;4910460;29;20111;-60
2021/05/28 00:07:07;;;;;;;10.35;5.32;;;;;;;16.54;93.25;96590.44;4908341;29;20040;-61
2021/05/28 00:09:32;;;;;;;7.07;5.28;;;;;;;17.07;92.05;96679.19;4908620;29;20039;-60
2021/05/28 00:11:58;;;;;;;8.65;5.45;;;;;;;17.02;93.87;96673.28;4908038;29;20036;-62
2021/05/28 00:14:23;;;;;;;8.35;5.93;;;;;;;16.42;94.86;96582.56;4908816;29;20519;-61
2021/05/28 00:16:49;;;;;;;17.65;7.43;;;;;;;16.88;96.80;96660.31;4923632;29;20111;-60
2021/05/28 00:19:14;;;;;;;9.13;6.45;;;;;;;15.54;98.16;96451.59;4909983;29;20083;-62
2021/05/28 00:21:39;;;;;;;9.10;6.65;;;;;;;16.84;98.31;96653.16;4909202;29;20040;-60
2021/05/28 00:24:06;;;;;;;13.00;6.50;;;;;;;16.54;96.58;96607.22;4910113;29;20036;-60
2021/05/28 00:26:31;;;;;;;7.15;5.63;;;;;;;16.58;94.93;96629.56;4907608;29;20403;-62
2021/05/28 00:28:57;;;;;;;6.22;5.40;;;;;;;16.68;94.78;96650.19;4909871;29;20036;-60
2021/05/28 00:31:23;;;;;;;10.55;5.78;;;;;;;16.26;95.16;96607.56;4909114;29;20036;-60
2021/05/28 00:33:49;;;;;;;7.55;5.10;;;;;;;16.40;95.52;96629.75;4909771;29;20064;-62
2021/05/28 00:36:15;;;;;;;12.23;6.22;;;;;;;15.75;96.06;96559.44;4907366;29;20024;-60
2021/05/28 00:38:40;;;;;;;9.68;5.68;;;;;;;15.55;97.37;96522.97;4908102;29;20047;-61
2021/05/28 00:41:05;;;;;;;11.02;6.43;;;;;;;16.22;97.58;96657.09;4923419;29;20032;-60
2021/05/28 00:43:31;;;;;;;7.95;5.43;;;;;;;16.13;99.24;96648.41;4923441;29;20479;-60
2021/05/28 00:45:57;;;;;;;9.60;6.32;;;;;;;15.83;99.35;96600.06;4923321;29;20495;-60
2021/05/28 00:48:22;;;;;;;7.90;6.13;;;;;;;15.88;99.42;96619.16;4909688;29;20821;-60
2021/05/28 00:50:48;;;;;;;10.10;6.82;;;;;;;16.16;97.94;96657.97;4907908;29;20036;-61
2021/05/28 00:53:14;;;;;;;8.18;6.00;;;;;;;14.97;97.12;96456.94;4909820;29;20044;-60
2021/05/28 00:55:40;;;;;;;12.93;5.82;;;;;;;15.39;96.44;96539.50;4891647;29;20063;-60
2021/05/28 00:58:07;;;;;;;8.02;6.07;;;;;;;15.33;98.29;96543.91;4909495;29;20052;-60
2021/05/28 01:00:33;;;;;;;10.70;5.45;;;;;;;16.09;98.64;96653.25;4908734;29;20887;-60
2021/05/28 01:02:58;;;;;;;11.32;5.05;;;;;;;16.04;97.20;96634.16;4909114;29;20056;-60
2021/05/28 01:05:24;;;;;;;8.18;5.10;;;;;;;16.12;97.01;96660.00;4908913;29;20499;-60
2021/05/28 01:07:49;;;;;;;6.05;5.43;;;;;;;15.75;96.72;96593.75;4907819;29;20530;-60
2021/05/28 01:10:15;;;;;;;7.45;4.45;;;;;;;16.07;95.09;96655.69;4909211;29;20036;-62
2021/05/28 01:12:42;;;;;;;7.10;3.97;;;;;;;14.98;95.11;96538.63;4909509;29;20040;-60
2021/05/28 01:15:09;;;;;;;7.05;4.65;;;;;;;15.93;95.79;96638.25;4908803;29;20115;-59
2021/05/28 01:17:35;;;;;;;8.88;4.68;;;;;;;16.01;95.18;96634.19;4908956;29;20048;-59
2021/05/28 01:20:02;;;;;;;5.68;4.05;;;;;;;15.92;93.25;96615.13;4907286;29;20566;-59
2021/05/28 01:22:27;;;;;;;6.35;3.58;;;;;;;16.01;92.80;96634.97;4908753;29;20122;-59
2021/05/28 01:24:53;;;;;;;5.45;3.95;;;;;;;15.73;93.38;96592.59;4907527;29;20032;-61
2021/05/28 01:27:19;;;;;;;9.82;4.90;;;;;;;15.95;95.07;96645.00;4908357;29;20052;-59
2021/05/28 01:29:46;;;;;;;7.25;4.82;;;;;;;15.82;95.11;96599.25;4907163;29;20507;-59
2021/05/28 01:32:11;;;;;;;10.05;4.53;;;;;;;15.41;95.26;96533.50;4906617;29;20061;-60
2021/05/28 01:34:37;;;;;;;10.65;4.60;;;;;;;16.08;94.21;96615.34;4908506;29;20544;-59
2021/05/28 01:37:02;;;;;;;9.85;5.20;;;;;;;16.07;94.32;96616.56;4908250;29;20400;-60
2021/05/28 01:39:29;;;;;;;9.23;5.20;;;;;;;16.13;94.46;96614.88;4906800;29;20032;-59
2021/05/28 01:41:54;;;;;;;9.82;5.38;;;;;;;16.19;93.22;96613.22;4907664;29;20123;-59
2021/05/28 01:44:20;;;;;;;6.40;4.40;;;;;;;16.12;93.22;96618.09;4908282;29;20039;-61
2021/05/28 01:46:48;;;;;;;10.10;4.55;;;;;;;16.11;93.77;96689.94;4907730;29;20178;-59
2021/05/28 01:49:14;;;;;;;6.30;3.72;;;;;;;16.15;92.93;96615.28;4937835;29;20119;-60
2021/05/28 01:51:48;;;;;;;6.25;4.60;;;;;;;15.95;93.19;96619.09;4908093;29;20583;-59
2021/05/28 01:54:13;;;;;;;6.30;3.85;;;;;;;15.92;91.48;96625.50;4908405;29;20035;-59
2021/05/28 01:56:40;;;;;;;4.93;3.88;;;;;;;16.06;91.50;96609.38;4907845;29;20036;-59
2021/05/28 01:59:10;;;;;;;5.93;3.58;;;;;;;16.07;90.09;96608.19;4906756;29;20036;-59
2021/05/28 02:01:35;;;;;;;5.28;4.35;;;;;;;15.22;91.28;96481.84;4938192;29;20430;-59
2021/05/28 02:04:02;;;;;;;8.38;3.80;;;;;;;15.95;90.92;96605.91;4908099;29;20038;-59
2021/05/28 02:06:28;;;;;;;6.18;3.47;;;;;;;16.00;90.82;96599.88;4921712;29;20099;-59
2021/05/28 02:08:53;;;;;;;10.38;4.35;;;;;;;15.30;91.44;96525.19;4908080;29;20028;-60
2021/05/28 02:11:19;;;;;;;6.60;3.83;;;;;;;15.86;92.20;96608.41;4906284;29;20119;-59
2021/05/28 02:13:44;;;;;;;5.25;4.30;;;;;;;15.17;91.30;96540.88;4906938;29;20044;-59
2021/05/28 02:16:10;;;;;;;7.05;3.83;;;;;;;15.82;92.06;96604.84;4907452;29;20123;-59
2021/05/28 02:18:35;;;;;;;6.07;4.00;;;;;;;15.46;92.36;96570.09;4908135;29;20146;-61
2021/05/28 02:21:01;;;;;;;5.95;3.88;;;;;;;15.91;92.25;96607.16;4907425;29;20119;-61
2021/05/28 02:23:26;;;;;;;5.75;3.78;;;;;;;15.64;92.21;96583.91;4907794;29;20040;-61
2021/05/28 02:25:52;;;;;;;6.25;4.03;;;;;;;15.80;91.63;96610.06;4907117;29;20503;-60
2021/05/28 02:28:17;;;;;;;8.57;3.92;;;;;;;15.36;92.16;96537.50;4907916;29;20400;-60
2021/05/28 02:30:43;;;;;;;6.90;4.25;;;;;;;15.33;91.49;96510.41;4907113;29;20043;-60
2021/05/28 02:33:08;;;;;;;5.53;3.40;;;;;;;15.90;91.36;96606.34;4907606;29;20056;-59
2021/05/28 02:35:34;;;;;;;5.80;3.60;;;;;;;15.81;91.41;96599.66;4906297;29;20047;-59
2021/05/28 02:37:59;;;;;;;7.97;3.70;;;;;;;15.71;92.45;96584.59;4907968;29;20427;-60
2021/05/28 02:40:25;;;;;;;7.00;3.97;;;;;;;15.90;91.33;96605.56;4907012;29;20511;-59
2021/05/28 02:42:51;;;;;;;6.93;3.83;;;;;;;13.72;91.85;96288.84;4907675;29;20499;-59
2021/05/28 02:45:16;;;;;;;5.32;3.70;;;;;;;15.63;92.79;96613.03;4907315;29;20032;-59
2021/05/28 02:47:42;;;;;;;6.68;3.70;;;;;;;15.40;92.82;96587.72;4921880;29;20051;-59
2021/05/28 02:50:08;;;;;;;7.80;3.50;;;;;;;15.52;91.71;96615.94;4906973;29;20507;-59
2021/05/28 02:52:33;;;;;;;4.60;3.40;;;;;;;14.94;91.75;96571.31;4907424;29;20620;-59
2021/05/28 02:54:58;;;;;;;7.18;3.65;;;;;;;15.65;91.09;96610.63;4922105;29;20036;-60
2021/05/28 02:57:24;;;;;;;5.15;3.63;;;;;;;15.75;91.23;96602.13;4907810;29;20523;-60
2021/05/28 02:59:49;;;;;;;7.75;3.63;;;;;;;15.74;91.20;96608.94;4908795;29;20040;-59
2021/05/28 03:02:17;;;;;;;5.30;3.80;;;;;;;15.79;91.30;96605.66;4909484;29;20047;-60
2021/05/28 03:04:43;;;;;;;8.07;3.92;;;;;;;15.88;90.56;96610.78;4909662;29;20036;-60
2021/05/28 03:07:30;;;;;;;5.78;3.30;;;;;;;15.82;91.73;96604.84;4910716;29;20415;-58
2021/05/28 03:09:57;;;;;;;5.18;3.38;;;;;;;15.87;89.95;96607.19;4911183;29;20032;-59
2021/05/28 03:12:22;;;;;;;7.13;3.90;;;;;;;16.01;87.97;96609.81;4910869;29;20151;-59
2021/05/28 03:14:48;;;;;;;5.35;3.30;;;;;;;15.54;88.31;96538.13;4911001;29;20499;-60
2021/05/28 03:17:14;;;;;;;6.25;3.53;;;;;;;15.18;86.97;96469.91;4910797;29;20513;-63
2021/05/28 03:19:44;;;;;;;4.00;2.92;;;;;;;15.77;87.16;96557.03;4909371;29;20036;-61
2021/05/28 03:22:33;;;;;;;9.23;3.95;;;;;;;16.00;87.15;96566.34;4910582;29;20047;-60
2021/05/28 03:25:01;;;;;;;4.20;2.97;;;;;;;14.85;87.43;96417.63;4911071;29;20118;-59
2021/05/28 03:27:27;;;;;;;7.85;4.05;;;;;;;16.39;87.19;96600.19;4910401;29;20077;-59
2021/05/28 03:29:52;;;;;;;6.60;3.78;;;;;;;16.39;87.07;96589.00;4911011;29;20893;-59
2021/05/28 03:32:18;;;;;;;4.85;3.20;;;;;;;15.92;87.86;96553.66;4910174;29;20609;-60
2021/05/28 03:34:43;;;;;;;4.75;3.30;;;;;;;16.05;89.02;96591.03;4909302;29;20426;-60
2021/05/28 03:37:09;;;;;;;4.82;3.47;;;;;;;15.91;87.28;96535.31;4940504;29;20052;-59
2021/05/28 03:39:34;;;;;;;3.83;3.05;;;;;;;16.45;86.50;96592.94;4909156;29;20031;-61
2021/05/28 03:42:00;;;;;;;4.03;2.92;;;;;;;16.39;86.88;96575.03;4910623;29;20118;-59
2021/05/28 03:44:25;;;;;;;9.43;3.40;;;;;;;15.53;87.03;96446.41;4909125;29;20458;-60
2021/05/28 03:46:51;;;;;;;6.78;3.35;;;;;;;16.71;84.62;96604.59;4909708;29;20032;-61
2021/05/28 03:49:16;;;;;;;6.53;3.70;;;;;;;16.70;84.47;96609.41;4910338;29;20310;-59
2021/05/28 03:51:42;;;;;;;6.63;3.35;;;;;;;16.55;85.55;96586.41;4908637;29;20556;-60
2021/05/28 03:54:07;;;;;;;7.47;3.65;;;;;;;16.75;85.32;96600.53;4908803;29;20036;-59
2021/05/28 03:56:33;;;;;;;7.65;3.20;;;;;;;16.44;84.73;96566.19;4910155;29;20032;-60
2021/05/28 03:58:58;;;;;;;8.15;3.78;;;;;;;16.26;88.76;96606.75;4908744;29;20535;-60
2021/05/28 04:01:24;;;;;;;7.13;3.60;;;;;;;13.96;88.99;96226.63;4909559;29;20082;-61
2021/05/28 04:03:49;;;;;;;6.85;4.60;;;;;;;16.66;88.35;96607.88;4909891;29;20044;-60
2021/05/28 04:06:15;;;;;;;5.80;4.57;;;;;;;15.84;88.14;96467.59;4909608;29;20047;-63
2021/05/28 04:08:40;;;;;;;5.05;4.32;;;;;;;16.99;85.99;96610.59;4908929;29;20936;-60
2021/05/28 04:11:05;;;;;;;10.25;4.30;;;;;;;17.00;86.17;96611.34;4909120;29;20409;-59
2021/05/28 04:13:32;;;;;;;11.07;6.30;;;;;;;17.04;87.66;96606.50;4910368;29;20070;-60
2021/05/28 04:15:59;;;;;;;8.15;5.55;;;;;;;16.57;87.20;96521.69;4907857;29;20044;-62
2021/05/28 04:18:24;;;;;;;7.68;4.93;;;;;;;17.17;86.21;96615.88;4909825;29;20462;-59
2021/05/28 04:20:50;;;;;;;6.68;4.00;;;;;;;17.19;85.65;96614.25;4908009;29;20347;-60
2021/05/28 04:23:16;;;;;;;8.20;3.80;;;;;;;16.91;84.78;96630.69;4908969;29;20040;-60
2021/05/28 04:25:41;;;;;;;6.97;3.70;;;;;;;16.45;83.91;96508.28;4910001;29;20055;-59
2021/05/28 04:28:07;;;;;;;10.65;4.60;;;;;;;16.80;85.43;96574.09;4908758;29;20195;-60
2021/05/28 04:30:33;;;;;;;9.25;4.13;;;;;;;17.31;85.80;96610.09;4909290;29;20032;-62
2021/05/28 04:32:58;;;;;;;11.45;5.50;;;;;;;17.26;85.21;96582.56;4907876;29;20135;-61
2021/05/28 04:35:24;;;;;;;8.43;5.15;;;;;;;17.03;84.82;96534.94;4908830;29;20124;-61
2021/05/28 04:37:49;;;;;;;7.43;4.40;;;;;;;17.75;83.48;96606.94;4909537;29;20411;-63
2021/05/28 04:40:16;;;;;;;11.73;5.63;;;;;;;17.84;83.01;96616.38;4907516;29;20035;-59
2021/05/28 04:42:41;;;;;;;5.00;3.83;;;;;;;17.97;82.19;96613.75;4909677;29;20043;-60
2021/05/28 04:45:07;;;;;;;7.43;3.83;;;;;;;18.13;81.54;96611.00;4909158;29;20441;-61
2021/05/28 04:47:33;;;;;;;6.25;4.15;;;;;;;17.96;80.49;96564.50;4909501;29;20499;-61
2021/05/28 04:49:59;;;;;;;6.88;3.83;;;;;;;18.04;79.60;96551.94;4924116;29;20439;-61
2021/05/28 04:52:24;;;;;;;6.53;4.30;;;;;;;17.68;79.17;96479.00;4907011;29;20037;-59
2021/05/28 04:54:50;;;;;;;8.02;4.00;;;;;;;17.87;78.93;96495.03;4909010;29;20575;-60
2021/05/28 04:57:15;;;;;;;11.00;4.05;;;;;;;18.09;78.11;96498.97;4908520;29;20044;-62
2021/05/28 04:59:41;;;;;;;7.15;4.55;;;;;;;18.98;76.12;96615.66;4909221;29;20039;-59
2021/05/28 05:02:07;;;;;;;6.97;4.25;;;;;;;18.93;75.99;96602.16;4922837;29;20078;-60
2021/05/28 05:04:33;;;;;;;6.75;4.43;;;;;;;18.76;74.74;96573.25;4908922;29;20040;-59
2021/05/28 05:06:59;;;;;;;8.30;3.55;;;;;;;19.08;73.61;96598.56;4908593;29;20051;-61
2021/05/28 05:09:24;;;;;;;6.60;3.92;;;;;;;18.70;73.82;96516.06;4908945;29;20032;-60
2021/05/28 05:11:50;;;;;;;6.00;3.90;;;;;;;17.42;74.48;96325.09;4908980;29;20040;-60
2021/05/28 05:14:16;;;;;;;4.18;3.20;;;;;;;18.90;74.14;96566.53;4909213;29;20496;-60
2021/05/28 05:16:41;;;;;;;7.47;2.92;;;;;;;19.32;73.90;96616.88;4908305;29;20118;-60
2021/05/28 05:19:07;;;;;;;7.35;3.20;;;;;;;19.00;73.29;96562.69;4908177;29;20040;-61
2021/05/28 05:21:32;;;;;;;5.57;3.95;;;;;;;19.49;74.19;96617.66;4908038;29;20427;-60
2021/05/28 05:23:57;;;;;;;7.63;3.30;;;;;;;19.13;74.75;96578.41;4906251;29;20036;-60
2021/05/28 05:26:23;;;;;;;8.25;3.85;;;;;;;19.39;74.05;96574.56;4908710;29;20047;-60
2021/05/28 05:28:48;;;;;;;9.07;3.72;;;;;;;19.77;73.22;96621.81;4907447;29;20431;-60
2021/05/28 05:31:14;;;;;;;10.00;3.80;;;;;;;18.46;73.13;96394.03;4922134;29;20059;-59
2021/05/28 05:33:39;;;;;;;7.53;3.38;;;;;;;20.10;72.65;96607.25;4906851;29;20070;-61
2021/05/28 05:36:05;;;;;;;6.97;3.33;;;;;;;20.26;71.57;96623.31;4906494;29;20483;-61
2021/05/28 05:38:31;;;;;;;8.57;3.35;;;;;;;19.82;69.90;96511.66;4908387;29;20047;-61
2021/05/28 05:40:56;;;;;;;13.15;3.90;;;;;;;20.31;69.77;96572.16;4908513;29;20083;-61
2021/05/28 05:43:22;;;;;;;4.60;3.65;;;;;;;20.66;69.06;96582.38;4909274;29;20039;-60
2021/05/28 05:45:47;;;;;;;8.30;3.47;;;;;;;20.80;69.46;96610.88;4922370;29;20032;-61
2021/05/28 05:48:13;;;;;;;8.20;3.95;;;;;;;21.02;68.81;96611.06;4922672;29;20060;-60
2021/05/28 05:50:38;;;;;;;5.57;3.15;;;;;;;18.93;68.23;96260.50;4907882;29;20408;-61
2021/05/28 05:53:04;;;;;;;7.85;3.67;;;;;;;21.08;68.77;96606.44;4907451;29;20040;-61
2021/05/28 05:55:29;;;;;;;10.68;4.82;;;;;;;21.13;67.83;96611.53;4906948;29;20435;-61
2021/05/28 05:57:55;;;;;;;7.20;3.85;;;;;;;20.94;68.22;96610.44;4907228;29;20500;-61
2021/05/28 06:00:20;;;;;;;7.68;3.70;;;;;;;20.49;68.47;96544.28;4906901;29;20039;-62
2021/05/28 06:02:46;;;;;;;15.05;8.82;;;;;;;20.35;66.30;96511.72;4903893;29;20040;-62
2021/05/28 06:05:12;;;;;;;16.75;10.70;;;;;;;20.45;66.86;96515.47;4897132;29;20044;-69
2021/05/28 06:07:37;;;;;;;14.15;6.30;;;;;;;20.73;66.17;96576.53;4894388;29;20074;-67
2021/05/28 06:10:03;;;;;;;6.65;4.50;;;;;;;20.98;66.89;96610.38;4906576;29;20512;-68
2021/05/28 06:12:29;;;;;;;7.05;4.95;;;;;;;21.02;67.56;96605.44;4903156;29;20135;-71
2021/05/28 06:14:54;;;;;;;5.28;4.60;;;;;;;21.04;67.57;96619.06;4925923;29;20024;-66
2021/05/28 06:17:20;;;;;;;9.57;4.65;;;;;;;20.87;68.15;96587.34;4910407;29;20084;-58
2021/05/28 06:19:46;;;;;;;10.38;4.75;;;;;;;21.19;69.15;96606.09;4907057;29;20020;-58
2021/05/28 06:22:11;;;;;;;15.57;5.53;;;;;;;20.93;69.73;96560.19;4894244;29;20056;-68
2021/05/28 06:24:37;;;;;;;8.50;4.82;;;;;;;21.34;68.36;96622.09;4899501;29;20122;-60
2021/05/28 06:27:03;;;;;;;9.77;4.90;;;;;;;21.54;66.68;96610.59;4910942;29;20472;-69
2021/05/28 06:29:29;;;;;;;9.85;4.68;;;;;;;21.75;66.48;96612.72;4925855;29;20035;-69
2021/05/28 06:31:54;;;;;;;16.05;7.50;;;;;;;21.17;70.45;96617.81;4926078;29;20070;-60
2021/05/28 06:34:20;;;;;;;15.15;7.55;;;;;;;20.60;73.85;96629.19;4925821;29;20586;-58
2021/05/28 06:36:46;;;;;;;11.73;7.30;;;;;;;20.61;74.25;96620.28;4925926;29;20031;-66
2021/05/28 06:39:11;;;;;;;17.55;7.70;;;;;;;20.44;73.90;96575.78;4926247;29;20082;-58
2021/05/28 06:41:38;;;;;;;13.63;7.22;;;;;;;19.25;74.64;96490.63;4914283;29;20032;-66
2021/05/28 06:44:05;;;;;;;12.95;5.45;;;;;;;20.50;75.15;96624.66;4906672;29;20104;-61
2021/05/28 06:46:31;;;;;;;8.68;4.88;;;;;;;19.88;75.28;96535.16;4901324;29;20039;-59
2021/05/28 06:48:58;;;;;;;15.80;8.45;;;;;;;20.30;74.26;96565.72;4905188;29;20115;-65
2021/05/28 06:51:24;;;;;;;5.10;4.18;;;;;;;20.83;70.89;96573.38;4903488;29;20039;-60
2021/05/28 06:53:56;;;;;;;6.82;3.53;;;;;;;21.09;69.13;96610.81;4905534;29;20044;-73
2021/05/28 06:56:21;;;;;;;8.60;4.47;;;;;;;20.17;69.27;96465.69;4898560;29;20043;-66
2021/05/28 06:58:49;;;;;;;8.45;4.38;;;;;;;21.42;69.05;96612.19;4908015;29;20036;-72
2021/05/28 07:01:14;;;;;;;8.77;4.60;;;;;;;21.27;69.45;96630.78;4905092;29;20075;-73
2021/05/28 07:03:40;;;;;;;8.77;5.22;;;;;;;21.71;67.35;96629.75;4935560;28;20083;-60
2021/05/28 07:06:06;;;;;;;6.30;3.58;;;;;;;21.60;66.92;96628.50;4894050;29;20067;-69
2021/05/28 07:08:32;;;;;;;14.48;4.40;;;;;;;21.83;66.97;96626.13;4907635;29;20044;-63
2021/05/28 07:10:58;;;;;;;5.25;3.80;;;;;;;21.94;68.13;96626.56;4907071;29;20431;-73
2021/05/28 07:13:23;;;;;;;4.57;3.55;;;;;;;21.85;68.63;96591.84;4906920;29;20028;-72
2021/05/28 07:15:49;;;;;;;8.27;4.60;;;;;;;21.99;68.88;96628.81;4907427;29;20475;-60
2021/05/28 07:18:14;;;;;;;7.82;3.90;;;;;;;21.96;69.32;96635.38;4907738;29;20554;-63
2021/05/28 07:20:40;;;;;;;15.00;9.18;;;;;;;21.28;71.50;96640.81;4900256;29;20041;-70
2021/05/28 07:23:05;;;;;;;8.80;5.70;;;;;;;21.11;72.49;96636.53;4888041;29;20540;-60
2021/05/28 07:25:30;;;;;;;7.65;5.60;;;;;;;20.80;73.22;96641.06;4887653;29;20040;-72
2021/05/28 07:27:56;;;;;;;10.30;4.40;;;;;;;21.01;73.63;96632.00;4888710;29;20511;-62
2021/05/28 07:30:22;;;;;;;10.77;4.65;;;;;;;21.22;73.52;96631.34;4887919;29;20535;-63
2021/05/28 07:32:47;;;;;;;8.80;4.80;;;;;;;21.25;72.57;96638.91;4888283;29;20459;-69
2021/05/28 07:35:13;;;;;;;10.65;4.85;;;;;;;21.07;71.32;96630.19;4888054;29;20088;-68
2021/05/28 07:37:40;;;;;;;9.77;6.18;;;;;;;21.39;72.32;96641.25;4888273;29;20484;-61
2021/05/28 07:40:09;;;;;;;10.20;6.40;;;;;;;21.00;75.13;96599.44;4903921;29;20602;-62
2021/05/28 07:42:35;;;;;;;7.65;5.53;;;;;;;21.35;77.99;96637.78;4906981;29;20112;-67
2021/05/28 07:45:00;;;;;;;8.23;5.00;;;;;;;20.88;78.97;96640.41;4907369;29;20043;-66
2021/05/28 07:47:26;;;;;;;8.88;5.30;;;;;;;19.88;79.94;96512.69;4899154;29;20079;-65
2021/05/28 07:49:51;;;;;;;7.78;4.90;;;;;;;19.88;81.45;96537.97;4892110;29;20059;-67
2021/05/28 07:52:17;;;;;;;8.90;5.47;;;;;;;20.52;82.36;96661.56;4921074;29;20486;-61
2021/05/28 07:54:42;;;;;;;7.72;5.05;;;;;;;20.47;81.02;96650.88;4905824;29;20523;-69
2021/05/28 07:57:08;;;;;;;8.25;4.13;;;;;;;20.37;80.34;96654.78;4901225;29;20040;-61
2021/05/28 07:59:34;;;;;;;8.65;4.43;;;;;;;19.72;79.97;96566.13;4909637;29;20086;-62
2021/05/28 08:01:59;;;;;;;7.30;3.95;;;;;;;20.22;78.80;96653.56;4909749;29;20047;-65
2021/05/28 08:04:25;;;;;;;7.22;3.72;;;;;;;20.05;79.25;96661.22;4909936;29;20036;-65
2021/05/28 08:06:51;;;;;;;5.05;3.28;;;;;;;19.83;79.00;96659.38;4936922;28;20040;-67
2021/05/28 08:09:16;;;;;;;6.13;3.85;;;;;;;19.58;79.96;96597.41;4922844;29;20518;-63
2021/05/28 08:11:42;;;;;;;6.47;3.70;;;;;;;19.67;76.37;96587.13;4926564;29;20032;-62
2021/05/28 08:14:08;;;;;;;9.07;3.88;;;;;;;18.81;79.17;96454.88;4912206;29;20032;-62
2021/05/28 08:16:33;;;;;;;6.68;3.45;;;;;;;20.15;77.80;96670.63;4907667;29;20039;-59
2021/05/28 08:18:59;;;;;;;4.10;3.45;;;;;;;19.59;76.50;96602.56;4910455;29;20035;-62
2021/05/28 08:21:25;;;;;;;5.03;3.30;;;;;;;19.44;77.79;96576.09;4899582;29;20036;-70
2021/05/28 08:23:50;;;;;;;6.97;3.97;;;;;;;18.64;79.21;96489.75;4905615;29;20083;-60
2021/05/28 08:26:16;;;;;;;8.18;3.65;;;;;;;18.57;80.03;96518.00;4936142;29;20074;-72
2021/05/28 08:28:42;;;;;;;7.20;3.47;;;;;;;19.18;81.37;96611.59;4905838;29;20044;-61
2021/05/28 08:31:08;;;;;;;5.45;3.63;;;;;;;19.53;82.12;96691.44;4895787;29;20528;-70
2021/05/28 08:33:34;;;;;;;7.03;4.10;;;;;;;18.71;82.70;96576.59;4914467;29;20130;-67
2021/05/28 08:36:00;;;;;;;5.55;3.35;;;;;;;18.78;84.72;96640.97;4927433;29;20075;-68
2021/05/28 08:38:26;;;;;;;7.50;4.03;;;;;;;18.96;86.37;96685.50;4903270;29;20480;-63
2021/05/28 08:40:52;;;;;;;8.13;4.22;;;;;;;19.01;86.18;96677.34;4897797;29;20040;-60
2021/05/28 08:43:18;;;;;;;6.15;3.75;;;;;;;18.80;85.98;96660.97;4897223;29;20508;-61
2021/05/28 08:45:46;;;;;;;7.43;4.45;;;;;;;18.46;89.20;96624.03;4895868;29;20044;-63
2021/05/28 08:48:14;;;;;;;8.43;6.03;;;;;;;18.60;94.36;96679.84;4916147;29;20044;-70
2021/05/28 08:50:41;;;;;;;12.38;6.15;;;;;;;18.67;95.90;96685.28;4906641;29;20036;-65
2021/05/28 08:53:11;;;;;;;11.25;5.55;;;;;;;18.48;96.64;96682.50;4927648;29;20501;-70
2021/05/28 08:55:39;;;;;;;9.20;5.78;;;;;;;18.43;98.11;96680.97;4890427;29;20048;-75
2021/05/28 08:58:11;;;;;;;8.25;5.13;;;;;;;18.51;96.68;96682.41;4907383;29;20040;-63
2021/05/28 09:00:37;;;;;;;11.02;5.97;;;;;;;18.59;96.04;96681.03;4900883;29;20500;-75
2021/05/28 09:03:33;;;;;;;12.88;5.47;;;;;;;18.49;95.64;96693.28;4914881;29;20051;-79
2021/05/28 09:06:01;;;;;;;13.15;5.47;;;;;;;17.59;93.42;96564.81;4900199;29;20055;-62
2021/05/28 09:08:34;;;;;;;8.75;6.00;;;;;;;18.54;93.96;96703.97;4904159;29;20494;-60
2021/05/28 09:11:18;;;;;;;11.35;7.13;;;;;;;18.21;100.00;96696.56;4902699;29;20036;-71
2021/05/28 09:13:51;;;;;;;;;;;;;;;18.54;100.00;96697.59;4909104;29;20047;-61
2021/05/28 09:16:19;;;;;;;9.18;4.13;;;;;;;16.67;94.59;96452.81;4908306;29;19991;-72
2021/05/28 09:18:49;;;;;;;8.27;5.03;;;;;;;18.20;91.79;96695.00;4908662;29;20044;-72
2021/05/28 09:21:23;;;;;;;12.18;5.22;;;;;;;18.04;88.87;96692.09;4908417;29;20123;-72
2021/05/28 09:23:48;;;;;;;10.00;5.63;;;;;;;18.29;88.93;96689.63;4909442;29;20103;-71
2021/05/28 09:26:14;;;;;;;8.05;5.13;;;;;;;17.92;88.80;96692.72;4908351;29;20463;-60
2021/05/28 09:28:45;;;;;;;10.00;6.97;;;;;;;18.29;94.36;96686.03;4908537;29;20392;-72
2021/05/28 09:31:16;;;;;;;7.53;5.15;;;;;;;18.74;89.27;96685.16;4908083;29;20036;-72
2021/05/28 09:33:45;;;;;;;5.95;3.63;;;;;;;18.96;88.02;96666.63;4906888;29;20052;-61
2021/05/28 09:36:13;;;;;;;4.47;3.60;;;;;;;18.42;80.95;96685.00;4938419;28;20550;-70
2021/05/28 09:38:40;;;;;;;7.32;4.68;;;;;;;18.59;86.66;96678.22;4907100;29;20108;-61
2021/05/28 09:41:06;;;;;;;10.93;6.57;;;;;;;18.67;85.80;96679.69;4938971;28;20370;-72
2021/05/28 09:43:32;;;;;;;24.73;11.35;;;;;;;18.57;85.27;96689.13;4908767;29;20074;-71
2021/05/28 09:45:58;;;;;;;8.70;5.40;;;;;;;18.43;84.35;96686.56;4908089;29;20031;-71
2021/05/28 09:48:29;;;;;;;12.10;6.28;;;;;;;18.50;87.24;96674.41;4908494;29;20429;-60
2021/05/28 09:51:04;;;;;;;9.95;5.43;;;;;;;18.11;80.46;96691.97;4907992;29;20043;-61
2021/05/28 09:53:39;;;;;;;8.93;5.43;;;;;;;18.08;80.52;96687.22;4907785;29;20607;-69
2021/05/28 09:56:28;;;;;;;10.05;5.57;;;;;;;17.85;81.81;96690.00;4911161;29;20090;-61
2021/05/28 09:59:06;;;;;;;9.52;5.95;;;;;;;17.56;84.32;96691.72;4926017;29;20080;-62
2021/05/28 10:01:32;;;;;;;6.50;4.72;;;;;;;17.19;82.39;96663.84;4914757;29;20412;-62
2021/05/28 10:04:09;;;;;;;9.93;6.65;;;;;;;17.39;86.41;96701.94;4907950;29;20044;-72
2021/05/28 10:06:37;;;;;;;5.70;3.72;;;;;;;17.17;86.37;96695.06;4907663;29;20028;-74
2021/05/28 10:09:06;;;;;;;7.47;3.70;;;;;;;17.19;91.42;96703.03;4907030;29;20507;-77
2021/05/28 10:11:33;;;;;;;13.68;5.03;;;;;;;17.20;91.69;96701.84;4907501;29;20486;-73
2021/05/28 10:13:59;;;;;;;8.20;5.53;;;;;;;17.04;90.27;96707.25;4907852;29;20108;-74
2021/05/28 10:16:25;;;;;;;10.95;5.93;;;;;;;16.90;90.73;96702.63;4907319;29;20028;-74
2021/05/28 10:18:54;;;;;;;8.77;5.53;;;;;;;16.63;93.06;96681.41;4906134;29;20399;-74
2021/05/28 10:21:20;;;;;;;12.82;4.68;;;;;;;16.94;95.32;96703.41;4904641;29;20436;-73
2021/05/28 10:23:46;;;;;;;11.40;4.50;;;;;;;17.25;96.83;96706.94;4907635;29;20039;-62
2021/05/28 10:26:13;;;;;;;7.15;4.15;;;;;;;17.28;95.74;96686.50;4907340;29;20028;-62
2021/05/28 10:28:43;;;;;;;10.05;4.57;;;;;;;17.67;97.77;96697.94;4908018;29;20036;-75
2021/05/28 10:31:10;;;;;;;12.77;5.60;;;;;;;17.98;97.02;96696.59;4907349;29;20072;-76
2021/05/28 10:33:36;;;;;;;12.63;7.55;;;;;;;17.77;95.78;96688.53;4905696;29;20131;-62
2021/05/28 10:36:07;;;;;;;11.02;6.10;;;;;;;17.19;97.61;96675.03;4907900;29;20450;-61
2021/05/28 10:38:47;;;;;;;9.10;6.00;;;;;;;17.25;100.00;96692.94;4907745;29;20051;-75
2021/05/28 10:41:12;;;;;;;14.07;6.07;;;;;;;17.70;100.00;96688.69;4907182;29;20424;-64
2021/05/28 10:43:58;;;;;;;11.35;6.85;;;;;;;18.04;100.00;96680.88;4906085;29;20044;-75
2021/05/28 10:46:24;;;;;;;7.82;4.20;;;;;;;17.74;98.86;96644.56;4907227;29;20028;-73
2021/05/28 10:48:50;;;;;;;7.85;4.75;;;;;;;18.22;97.63;96686.97;4907877;29;20048;-62
2021/05/28 10:51:22;;;;;;;15.02;5.90;;;;;;;18.10;94.89;96693.97;4906821;29;20028;-61
2021/05/28 10:53:50;;;;;;;9.25;4.78;;;;;;;18.11;93.83;96686.38;4906232;29;20040;-70
2021/05/28 10:56:17;;;;;;;14.18;6.45;;;;;;;18.19;89.95;96693.44;4911479;29;20031;-75
2021/05/28 10:58:56;;;;;;;5.82;4.72;;;;;;;18.21;93.07;96690.97;4923770;29;20047;-70
2021/05/28 11:01:44;;;;;;;8.85;5.15;;;;;;;17.97;88.69;96692.22;4899241;29;20091;-67
2021/05/28 11:04:17;;;;;;;5.88;4.15;;;;;;;18.39;93.39;96691.47;4920644;29;20045;-60
2021/05/28 11:07:03;;;;;;;7.03;4.82;;;;;;;18.82;85.98;96686.59;4906818;29;20519;-69
2021/05/28 11:09:39;;;;;;;4.93;3.38;;;;;;;18.60;83.51;96606.91;4897979;29;20687;-68
2021/05/28 11:12:09;;;;;;;4.45;3.58;;;;;;;19.14;80.55;96647.38;4909778;28;20143;-67
2021/05/28 11:14:36;;;;;;;4.40;3.33;;;;;;;19.70;80.72;96681.00;4888587;29;20037;-61
2021/05/28 11:17:01;;;;;;;3.50;3.13;;;;;;;19.01;80.23;96637.25;4888273;29;20051;-66
2021/05/28 11:19:31;;;;;;;3.92;3.40;;;;;;;19.71;80.58;96679.78;4894387;29;20539;-70
2021/05/28 11:22:04;;;;;;;7.45;3.50;;;;;;;18.87;79.65;96679.69;4907420;29;20052;-66
2021/05/28 11:24:53;;;;;;;3.63;3.05;;;;;;;18.85;78.64;96595.91;4910746;29;20036;-67
2021/05/28 11:27:24;;;;;;;4.88;3.50;;;;;;;19.42;75.05;96631.91;4904451;29;20103;-71
2021/05/28 11:29:55;;;;;;;4.75;2.78;;;;;;;19.17;76.73;96663.34;4912713;29;20461;-70
2021/05/28 11:32:31;;;;;;;4.78;2.83;;;;;;;19.42;75.34;96579.34;4891096;29;20045;-71